createdAt,value
2019-02-02T00:02:28.853Z,59.90
2019-02-02T00:05:21.063Z,60.00
2019-02-02T00:08:13.185Z,60.00
2019-02-02T00:11:05.573Z,60.00
2019-02-02T00:13:58.126Z,59.90
2019-02-02T00:16:50.486Z,60.00
2019-02-02T00:19:42.637Z,60.00
2019-02-02T00:22:35.865Z,60.00
2019-02-02T00:25:28.056Z,59.90
2019-02-02T00:28:20.109Z,59.90
2019-02-02T00:31:12.240Z,59.90
2019-02-02T00:34:04.547Z,59.90
2019-02-02T00:36:59.114Z,59.90
2019-02-02T00:39:50.466Z,59.90
2019-02-02T00:42:42.783Z,59.90
2019-02-02T00:45:34.843Z,60.00
2019-02-02T00:48:26.866Z,60.00
2019-02-02T00:51:19.027Z,60.00
2019-02-02T00:54:11.534Z,60.00
2019-02-02T00:57:04.051Z,59.90
2019-02-02T00:59:56.229Z,59.80
2019-02-02T01:02:48.263Z,59.80
2019-02-02T01:05:40.495Z,59.80
2019-02-02T01:08:32.744Z,60.00
2019-02-02T01:11:24.936Z,59.90
2019-02-02T01:14:17.970Z,59.80
2019-02-02T01:17:10.578Z,59.80
2019-02-02T01:20:02.621Z,59.60
2019-02-02T01:22:54.910Z,59.50
2019-02-02T01:25:47.151Z,59.60
2019-02-02T01:28:39.585Z,59.50
2019-02-02T01:31:32.221Z,59.40
2019-02-02T01:34:24.698Z,59.40
2019-02-02T01:37:17.304Z,59.30
2019-02-02T01:40:10.712Z,59.40
2019-02-02T01:43:03.138Z,59.30
2019-02-02T01:45:55.525Z,59.30
2019-02-02T01:48:47.870Z,59.30
2019-02-02T01:51:40.441Z,59.40
2019-02-02T01:54:32.683Z,59.20
2019-02-02T01:57:25.473Z,59.30
2019-02-02T02:00:19.587Z,59.30
2019-02-02T02:03:11.898Z,59.30
2019-02-02T02:06:04.216Z,59.50
2019-02-02T02:08:56.656Z,59.40
2019-02-02T02:11:49.214Z,59.50
2019-02-02T02:14:42.794Z,59.60
2019-02-02T02:17:35.586Z,59.50
2019-02-02T02:20:28.178Z,59.50
2019-02-02T02:23:20.734Z,59.50
2019-02-02T02:26:12.849Z,59.70
2019-02-02T02:29:05.129Z,59.60
2019-02-02T02:31:57.476Z,59.50
2019-02-02T02:34:49.742Z,59.40
2019-02-02T02:37:41.919Z,59.50
2019-02-02T02:40:34.217Z,59.50
2019-02-02T02:43:26.544Z,59.50
2019-02-02T02:46:19.243Z,59.40
2019-02-02T02:49:11.220Z,59.40
2019-02-02T02:52:03.952Z,59.40
2019-02-02T02:54:55.906Z,59.40
2019-02-02T02:57:49.212Z,59.30
2019-02-02T03:00:41.528Z,59.50
2019-02-02T03:03:33.662Z,59.50
2019-02-02T03:06:25.509Z,59.60
2019-02-02T03:09:17.614Z,59.60
2019-02-02T03:12:09.661Z,59.50
2019-02-02T03:15:02.539Z,59.30
2019-02-02T03:17:54.969Z,59.40
2019-02-02T03:20:46.868Z,59.50
2019-02-02T03:23:39.003Z,59.40
2019-02-02T03:26:30.955Z,59.10
2019-02-02T03:29:23.074Z,59.10
2019-02-02T03:32:15.412Z,59.30
2019-02-02T03:35:07.960Z,59.10
2019-02-02T03:38:00.090Z,58.90
2019-02-02T03:40:52.142Z,59.20
2019-02-02T03:43:45.494Z,59.30
2019-02-02T03:46:37.705Z,58.80
2019-02-02T03:49:30.051Z,59.10
2019-02-02T03:52:22.049Z,58.80
2019-02-02T03:55:14.518Z,58.80
2019-02-02T03:58:06.755Z,58.70
2019-02-02T04:00:58.652Z,58.90
2019-02-02T04:03:50.847Z,59.00
2019-02-02T04:06:43.175Z,58.90
2019-02-02T04:09:35.209Z,58.80
2019-02-02T04:12:27.200Z,58.90
2019-02-02T04:15:19.701Z,58.50
2019-02-02T04:18:13.270Z,58.30
2019-02-02T04:21:06.847Z,58.50
2019-02-02T04:23:59.998Z,58.70
2019-02-02T04:26:52.615Z,58.80
2019-02-02T04:29:44.780Z,59.40
2019-02-02T04:32:37.535Z,58.70
2019-02-02T04:35:29.856Z,58.70
2019-02-02T04:38:22.560Z,58.80
2019-02-02T04:41:17.435Z,59.00
2019-02-02T04:44:10.063Z,59.00
2019-02-02T04:47:02.592Z,58.90
2019-02-02T04:49:55.048Z,58.70
2019-02-02T04:52:47.175Z,58.60
2019-02-02T04:55:39.091Z,58.60
2019-02-02T04:58:31.125Z,58.60
2019-02-02T05:01:24.190Z,58.60
2019-02-02T05:04:17.498Z,58.70
2019-02-02T05:07:10.371Z,58.80
2019-02-02T05:10:03.095Z,58.80
2019-02-02T05:12:55.294Z,58.80
2019-02-02T05:15:47.436Z,58.80
2019-02-02T05:18:39.918Z,58.80
2019-02-02T05:21:33.049Z,58.80
2019-02-02T05:24:25.643Z,58.70
2019-02-02T05:27:18.150Z,58.70
2019-02-02T05:30:21.100Z,58.60
2019-02-02T05:33:15.353Z,58.60
2019-02-02T05:36:08.334Z,58.60
2019-02-02T05:39:01.399Z,58.80
2019-02-02T05:41:55.239Z,58.80
2019-02-02T05:44:47.581Z,59.00
2019-02-02T05:47:40.168Z,59.20
2019-02-02T05:50:33.422Z,59.60
2019-02-02T05:53:27.145Z,59.80
2019-02-02T05:56:19.666Z,60.30
2019-02-02T05:59:12.504Z,60.90
2019-02-02T06:02:06.145Z,61.30
2019-02-02T06:04:58.651Z,61.40
2019-02-02T06:07:53.703Z,61.40
2019-02-02T06:10:46.812Z,61.50
2019-02-02T06:13:40.224Z,61.50
2019-02-02T06:16:46.159Z,61.50
2019-02-02T06:19:41.621Z,61.60
2019-02-02T06:22:34.944Z,61.50
2019-02-02T06:25:33.588Z,61.30
2019-02-02T06:28:26.589Z,62.00
2019-02-02T06:31:19.821Z,61.20
2019-02-02T06:34:12.298Z,61.50
2019-02-02T06:37:04.941Z,61.40
2019-02-02T06:40:18.075Z,61.00
2019-02-02T06:43:12.075Z,60.60
2019-02-02T06:46:04.583Z,60.50
2019-02-02T06:48:57.978Z,60.00
2019-02-02T06:51:51.020Z,59.80
2019-02-02T06:54:45.315Z,59.80
2019-02-02T06:57:39.780Z,59.70
2019-02-02T07:00:32.843Z,59.60
2019-02-02T07:03:28.293Z,59.50
2019-02-02T07:06:27.603Z,59.20
2019-02-02T07:09:25.839Z,59.20
2019-02-02T07:12:20.241Z,59.20
2019-02-02T07:15:15.063Z,59.00
2019-02-02T07:18:08.991Z,58.90
2019-02-02T07:21:04.945Z,59.00
2019-02-02T07:23:58.199Z,59.10
2019-02-02T07:26:51.032Z,59.20
2019-02-02T07:29:43.242Z,59.30
2019-02-02T07:32:36.201Z,59.00
2019-02-02T07:35:29.418Z,58.90
2019-02-02T07:38:21.991Z,58.60
2019-02-02T07:41:15.653Z,57.90
2019-02-02T07:44:09.101Z,57.50
2019-02-02T07:47:03.163Z,57.60
2019-02-02T07:50:00.352Z,57.70
2019-02-02T07:52:52.906Z,57.90
2019-02-02T07:55:45.564Z,58.20
2019-02-02T07:58:37.669Z,59.00
2019-02-02T08:01:29.998Z,59.70
2019-02-02T08:04:23.322Z,60.20
2019-02-02T08:07:16.598Z,60.70
2019-02-02T08:10:10.248Z,60.40
2019-02-02T08:13:02.841Z,60.30
2019-02-02T08:15:57.087Z,60.40
2019-02-02T08:18:49.471Z,60.40
2019-02-02T08:21:44.563Z,60.70
2019-02-02T08:24:38.696Z,60.50
2019-02-02T08:27:32.219Z,60.60
2019-02-02T08:30:29.596Z,61.00
2019-02-02T08:33:22.691Z,61.30
2019-02-02T08:36:14.920Z,61.60
2019-02-02T08:39:08.920Z,61.80
2019-02-02T08:42:01.648Z,62.10
2019-02-02T08:44:54.233Z,61.70
2019-02-02T08:47:46.852Z,61.50
2019-02-02T08:50:41.051Z,61.80
2019-02-02T08:53:33.432Z,62.10
2019-02-02T08:56:25.572Z,62.20
2019-02-02T08:59:17.913Z,61.60
2019-02-02T09:02:11.268Z,60.20
2019-02-02T09:05:04.406Z,58.90
2019-02-02T09:07:56.694Z,58.00
2019-02-02T09:10:49.834Z,57.40
2019-02-02T09:13:42.329Z,57.00
2019-02-02T09:16:34.634Z,56.90
2019-02-02T09:19:27.637Z,57.10
2019-02-02T09:22:20.907Z,56.60
2019-02-02T09:25:14.602Z,56.30
2019-02-02T09:28:07.573Z,56.60
2019-02-02T09:31:00.865Z,56.70
2019-02-02T09:33:54.553Z,57.10
2019-02-02T09:36:48.221Z,57.50
2019-02-02T09:39:41.460Z,58.20
2019-02-02T09:42:34.391Z,58.60
2019-02-02T09:45:33.493Z,59.00
2019-02-02T09:48:26.726Z,59.20
2019-02-02T09:51:20.888Z,59.50
2019-02-02T09:54:26.136Z,59.60
2019-02-02T09:57:10.423Z,59.80
2019-02-02T10:00:04.141Z,59.90
2019-02-02T10:02:58.466Z,60.00
2019-02-02T10:05:52.211Z,60.00
2019-02-02T10:08:44.604Z,60.10
2019-02-02T10:11:36.762Z,60.20
2019-02-02T10:14:30.140Z,60.20
2019-02-02T10:17:22.840Z,60.30
2019-02-02T10:20:18.305Z,60.40
2019-02-02T10:23:11.313Z,60.50
2019-02-02T10:26:03.789Z,60.50
2019-02-02T10:28:56.268Z,60.30
2019-02-02T10:31:49.035Z,60.30
2019-02-02T10:34:41.653Z,60.30
2019-02-02T10:37:33.692Z,60.40
2019-02-02T10:40:26.209Z,60.20
2019-02-02T10:43:19.066Z,60.30
2019-02-02T10:46:11.491Z,60.40
2019-02-02T10:49:04.369Z,60.40
2019-02-02T10:51:57.934Z,60.40
2019-02-02T10:54:51.274Z,60.60
2019-02-02T10:57:45.194Z,60.80
2019-02-02T11:00:39.979Z,61.40
2019-02-02T11:03:34.537Z,61.00
2019-02-02T11:06:27.320Z,61.10
2019-02-02T11:09:20.202Z,61.20
2019-02-02T11:12:15.160Z,61.10
2019-02-02T11:15:10.895Z,61.10
2019-02-02T11:18:05.071Z,61.10
2019-02-02T11:20:58.673Z,61.10
2019-02-02T11:23:51.325Z,61.00
2019-02-02T11:26:44.943Z,61.30
2019-02-02T11:29:37.862Z,61.40
2019-02-02T11:32:31.630Z,61.40
2019-02-02T11:35:26.606Z,61.50
2019-02-02T11:38:19.290Z,61.40
2019-02-02T11:41:11.387Z,61.60
2019-02-02T11:44:03.809Z,61.60
2019-02-02T11:46:56.183Z,61.50
2019-02-02T11:49:48.647Z,61.60
2019-02-02T11:52:42.205Z,61.70
2019-02-02T11:55:34.963Z,61.80
2019-02-02T11:58:27.758Z,61.90
2019-02-02T12:01:20.323Z,62.00
2019-02-02T12:04:13.413Z,62.00
2019-02-02T12:07:06.548Z,62.10
2019-02-02T12:09:59.896Z,62.20
2019-02-02T12:12:53.252Z,62.00
2019-02-02T12:15:48.501Z,62.00
2019-02-02T12:18:41.118Z,62.00
2019-02-02T12:21:34.839Z,62.20
2019-02-02T12:24:29.151Z,62.40
2019-02-02T12:27:21.923Z,62.50
2019-02-02T12:30:20.171Z,62.70
2019-02-02T12:33:12.631Z,63.00
2019-02-02T12:36:05.243Z,63.00
2019-02-02T12:38:57.682Z,62.90
2019-02-02T12:41:49.826Z,62.40
2019-02-02T12:44:41.846Z,61.80
2019-02-02T12:47:34.303Z,61.80
2019-02-02T12:50:27.444Z,61.70
2019-02-02T12:53:21.490Z,62.00
2019-02-02T12:56:17.618Z,61.90
2019-02-02T12:59:11.375Z,62.00
2019-02-02T13:02:04.800Z,62.10
2019-02-02T13:05:04.156Z,62.10
2019-02-02T13:07:56.273Z,62.20
2019-02-02T13:10:48.945Z,62.20
2019-02-02T13:13:42.721Z,62.10
2019-02-02T13:16:34.888Z,62.40
2019-02-02T13:19:27.241Z,62.70
2019-02-02T13:22:23.346Z,63.10
2019-02-02T13:25:16.873Z,63.60
2019-02-02T13:28:13.006Z,63.90
2019-02-02T13:31:06.973Z,63.80
2019-02-02T13:34:00.373Z,63.70
2019-02-02T13:36:52.837Z,63.70
2019-02-02T13:39:46.496Z,63.60
2019-02-02T13:42:39.404Z,63.60
2019-02-02T13:45:31.742Z,63.60
2019-02-02T13:48:24.196Z,63.60
2019-02-02T13:51:16.429Z,63.60
2019-02-02T13:54:09.013Z,63.60
2019-02-02T13:57:01.427Z,63.60
2019-02-02T13:59:53.769Z,63.70
2019-02-02T14:02:46.104Z,63.70
2019-02-02T14:05:38.595Z,63.80
2019-02-02T14:08:30.956Z,63.90
2019-02-02T14:11:23.259Z,64.00
2019-02-02T14:14:15.503Z,64.20
2019-02-02T14:17:07.584Z,64.30
2019-02-02T14:19:59.906Z,64.30
2019-02-02T14:22:52.587Z,64.30
2019-02-02T14:25:45.603Z,64.20
2019-02-02T14:28:38.138Z,64.20
2019-02-02T14:31:30.428Z,64.10
2019-02-02T14:34:22.406Z,64.10
2019-02-02T14:37:15.671Z,64.10
2019-02-02T14:40:08.754Z,64.10
2019-02-02T14:43:01.949Z,63.90
2019-02-02T14:45:57.291Z,63.80
2019-02-02T14:48:54.131Z,63.90
2019-02-02T14:51:46.596Z,63.70
2019-02-02T14:54:38.945Z,63.70
2019-02-02T14:57:31.605Z,63.70
2019-02-02T15:00:24.444Z,63.60
2019-02-02T15:03:25.579Z,63.50
2019-02-02T15:06:10.449Z,63.50
2019-02-02T15:09:02.431Z,63.40
2019-02-02T15:11:55.549Z,63.40
2019-02-02T15:14:47.673Z,63.40
2019-02-02T15:17:44.410Z,63.30
2019-02-02T15:20:38.635Z,63.30
2019-02-02T15:23:30.937Z,63.30
2019-02-02T15:26:23.156Z,63.30
2019-02-02T15:29:15.323Z,63.30
2019-02-02T15:32:07.365Z,63.20
2019-02-02T15:34:59.334Z,63.20
2019-02-02T15:37:51.531Z,63.20
2019-02-02T15:40:43.914Z,63.20
2019-02-02T15:43:36.233Z,63.20
2019-02-02T15:46:28.413Z,63.10
2019-02-02T15:49:21.004Z,63.10
2019-02-02T15:52:13.341Z,63.10
2019-02-02T15:55:05.875Z,63.00
2019-02-02T15:57:58.581Z,63.00
2019-02-02T16:00:50.699Z,63.10
2019-02-02T16:03:49.539Z,63.00
2019-02-02T16:06:36.945Z,62.90
2019-02-02T16:09:29.697Z,63.00
2019-02-02T16:12:21.959Z,63.00
2019-02-02T16:15:15.040Z,63.00
2019-02-02T16:18:07.448Z,63.10
2019-02-02T16:20:59.874Z,63.00
2019-02-02T16:23:52.155Z,63.00
2019-02-02T16:26:44.465Z,63.00
2019-02-02T16:29:37.198Z,63.10
2019-02-02T16:32:29.595Z,63.10
2019-02-02T16:35:21.881Z,62.90
2019-02-02T16:38:14.321Z,62.80
2019-02-02T16:41:06.399Z,62.70
2019-02-02T16:43:59.816Z,62.80
2019-02-02T16:46:51.905Z,62.70
2019-02-02T16:49:43.967Z,62.80
2019-02-02T16:52:36.145Z,62.80
2019-02-02T16:55:28.262Z,62.80
2019-02-02T16:58:20.632Z,62.80
2019-02-02T17:01:12.645Z,62.80
2019-02-02T17:04:15.481Z,62.70
2019-02-02T17:06:58.540Z,62.80
2019-02-02T17:09:50.686Z,62.90
2019-02-02T17:12:42.897Z,62.90
2019-02-02T17:15:35.120Z,62.80
2019-02-02T17:18:27.764Z,62.90
2019-02-02T17:21:23.624Z,62.90
2019-02-02T17:24:16.461Z,62.90
2019-02-02T17:27:09.206Z,62.90
2019-02-02T17:30:01.774Z,63.00
2019-02-02T17:32:55.800Z,63.10
2019-02-02T17:35:49.742Z,63.00
2019-02-02T17:38:42.004Z,63.00
2019-02-02T17:41:35.598Z,62.90
2019-02-02T17:44:29.321Z,63.10
2019-02-02T17:47:22.846Z,63.10
2019-02-02T17:50:16.412Z,63.00
2019-02-02T17:53:11.432Z,63.00
2019-02-02T17:56:03.631Z,62.90
2019-02-02T17:58:56.428Z,62.80
2019-02-02T18:01:48.674Z,62.90
2019-02-02T18:04:43.237Z,62.90
2019-02-02T18:07:35.190Z,62.80
2019-02-02T18:10:28.001Z,62.90
2019-02-02T18:13:20.368Z,63.00
2019-02-02T18:16:13.659Z,63.00
2019-02-02T18:19:06.768Z,63.00
2019-02-02T18:21:59.681Z,63.20
2019-02-02T18:24:52.302Z,63.10
2019-02-02T18:27:44.422Z,62.90
2019-02-02T18:30:36.550Z,62.80
2019-02-02T18:33:28.780Z,62.70
2019-02-02T18:36:21.221Z,62.70
2019-02-02T18:39:13.744Z,62.80
2019-02-02T18:42:06.312Z,63.40
2019-02-02T18:44:58.800Z,63.10
2019-02-02T18:47:51.573Z,63.20
2019-02-02T18:50:45.264Z,63.20
2019-02-02T18:53:37.783Z,63.20
2019-02-02T18:56:30.030Z,63.30
2019-02-02T18:59:21.868Z,63.30
2019-02-02T19:02:14.319Z,63.30
2019-02-02T19:05:07.067Z,63.40
2019-02-02T19:07:59.846Z,63.30
2019-02-02T19:10:52.428Z,63.40
2019-02-02T19:13:44.850Z,63.30
2019-02-02T19:16:37.122Z,63.30
2019-02-02T19:19:29.409Z,63.30
2019-02-02T19:22:21.725Z,63.30
2019-02-02T19:25:14.335Z,63.40
2019-02-02T19:28:06.888Z,63.50
2019-02-02T19:30:59.431Z,63.70
2019-02-02T19:33:51.698Z,63.50
2019-02-02T19:36:44.012Z,63.50
2019-02-02T19:39:36.345Z,63.60
2019-02-02T19:42:31.330Z,63.50
2019-02-02T19:45:23.710Z,63.40
2019-02-02T19:48:16.146Z,63.50
2019-02-02T19:51:08.469Z,63.70
2019-02-02T19:54:00.615Z,63.50
2019-02-02T19:56:53.585Z,63.40
2019-02-02T19:59:45.902Z,63.40
2019-02-02T20:02:37.914Z,63.40
2019-02-02T20:05:29.974Z,63.30
2019-02-02T20:08:21.825Z,63.20
2019-02-02T20:11:13.741Z,63.40
2019-02-02T20:14:06.750Z,63.50
2019-02-02T20:16:58.732Z,63.40
2019-02-02T20:19:50.982Z,63.20
2019-02-02T20:22:42.983Z,63.50
2019-02-02T20:25:35.144Z,63.30
2019-02-02T20:28:27.376Z,63.30
2019-02-02T20:31:19.790Z,63.40
2019-02-02T20:34:12.206Z,63.50
2019-02-02T20:37:04.241Z,63.50
2019-02-02T20:39:56.239Z,63.40
2019-02-02T20:42:48.578Z,63.50
2019-02-02T20:45:40.612Z,63.50
2019-02-02T20:48:33.209Z,63.50
2019-02-02T20:51:25.666Z,63.50
2019-02-02T20:54:19.103Z,63.60
2019-02-02T20:57:11.370Z,63.60
2019-02-02T21:00:03.489Z,63.40
2019-02-02T21:02:55.503Z,63.30
2019-02-02T21:05:52.464Z,63.20
2019-02-02T21:08:42.029Z,63.30
2019-02-02T21:11:34.382Z,63.50
2019-02-02T21:14:27.023Z,63.70
2019-02-02T21:17:19.063Z,63.40
2019-02-02T21:20:15.989Z,63.20
2019-02-02T21:23:08.332Z,63.30
2019-02-02T21:26:00.742Z,63.20
2019-02-02T21:28:52.947Z,63.70
2019-02-02T21:31:45.119Z,63.30
2019-02-02T21:34:37.286Z,63.40
2019-02-02T21:37:29.484Z,63.30
2019-02-02T21:40:24.832Z,63.40
2019-02-02T21:43:17.240Z,63.40
2019-02-02T21:46:09.299Z,63.40
2019-02-02T21:49:02.219Z,63.30
2019-02-02T21:51:54.765Z,63.40
2019-02-02T21:54:47.197Z,63.40
2019-02-02T21:57:40.102Z,63.70
2019-02-02T22:00:34.665Z,63.90
2019-02-02T22:03:26.740Z,64.00
2019-02-02T22:06:19.285Z,64.00
2019-02-02T22:09:11.615Z,63.60
2019-02-02T22:12:03.658Z,63.60
2019-02-02T22:14:55.975Z,63.70
2019-02-02T22:17:48.440Z,63.90
2019-02-02T22:20:40.359Z,64.20
2019-02-02T22:23:33.010Z,64.10
2019-02-02T22:26:25.056Z,64.00
2019-02-02T22:29:17.388Z,64.10
2019-02-02T22:32:09.706Z,64.10
2019-02-02T22:35:01.757Z,64.20
2019-02-02T22:37:54.075Z,64.20
2019-02-02T22:40:46.443Z,64.40
2019-02-02T22:43:38.463Z,64.40
2019-02-02T22:46:30.465Z,64.50
2019-02-02T22:49:23.434Z,64.60
2019-02-02T22:52:15.547Z,64.70
2019-02-02T22:55:07.897Z,64.70
2019-02-02T22:58:00.446Z,64.80
2019-02-02T23:01:02.781Z,65.00
2019-02-02T23:04:25.202Z,64.80
2019-02-02T23:07:34.221Z,64.70
2019-02-02T23:10:44.614Z,64.80
2019-02-02T23:13:53.824Z,64.80
2019-02-02T23:16:46.646Z,65.00
2019-02-02T23:19:38.933Z,65.00
2019-02-02T23:22:31.034Z,65.20
2019-02-02T23:25:23.108Z,65.00
2019-02-02T23:28:15.012Z,65.00
2019-02-02T23:31:08.157Z,64.90
2019-02-02T23:34:00.531Z,65.10
2019-02-02T23:36:55.262Z,64.90
2019-02-02T23:39:46.611Z,64.90
2019-02-02T23:42:38.638Z,64.80
2019-02-02T23:45:30.970Z,65.10
2019-02-02T23:48:23.629Z,65.00
2019-02-02T23:51:15.646Z,64.80
2019-02-02T23:54:08.023Z,64.70
2019-02-02T23:57:00.021Z,64.80
2019-02-02T23:59:52.283Z,64.90
